sensor_id;sensor_type;location;lat;lon;timestamp;P1;durP1;ratioP1;P2;durP2;ratioP2
55216;SDS011;41086;46.736;15.666;2023-09-07T00:00:32;14.10;;;9.38;;
55216;SDS011;41086;46.736;15.666;2023-09-07T00:02:59;15.18;;;9.35;;
55216;SDS011;41086;46.736;15.666;2023-09-07T00:05:26;11.63;;;8.77;;
55216;SDS011;41086;46.736;15.666;2023-09-07T00:07:53;11.90;;;8.55;;
55216;SDS011;41086;46.736;15.666;2023-09-07T00:10:20;16.00;;;9.43;;
55216;SDS011;41086;46.736;15.666;2023-09-07T00:12:47;13.57;;;8.80;;
55216;SDS011;41086;46.736;15.666;2023-09-07T00:15:14;17.45;;;9.00;;
55216;SDS011;41086;46.736;15.666;2023-09-07T00:17:40;14.23;;;9.73;;
55216;SDS011;41086;46.736;15.666;2023-09-07T00:20:07;37.17;;;11.50;;
55216;SDS011;41086;46.736;15.666;2023-09-07T00:22:38;13.35;;;9.35;;
55216;SDS011;41086;46.736;15.666;2023-09-07T00:25:06;15.40;;;9.35;;
55216;SDS011;41086;46.736;15.666;2023-09-07T00:27:33;14.90;;;9.30;;
55216;SDS011;41086;46.736;15.666;2023-09-07T00:30:01;13.68;;;9.93;;
55216;SDS011;41086;46.736;15.666;2023-09-07T00:32:35;13.18;;;9.00;;
55216;SDS011;41086;46.736;15.666;2023-09-07T00:35:03;14.90;;;9.10;;
55216;SDS011;41086;46.736;15.666;2023-09-07T00:37:30;15.00;;;9.75;;
55216;SDS011;41086;46.736;15.666;2023-09-07T00:39:58;14.43;;;9.80;;
55216;SDS011;41086;46.736;15.666;2023-09-07T00:42:24;13.05;;;8.75;;
55216;SDS011;41086;46.736;15.666;2023-09-07T00:44:51;9.45;;;7.53;;
55216;SDS011;41086;46.736;15.666;2023-09-07T00:47:18;13.63;;;8.60;;
55216;SDS011;41086;46.736;15.666;2023-09-07T00:49:45;14.32;;;9.85;;
55216;SDS011;41086;46.736;15.666;2023-09-07T00:52:12;12.55;;;8.63;;
55216;SDS011;41086;46.736;15.666;2023-09-07T00:54:40;15.27;;;9.05;;
55216;SDS011;41086;46.736;15.666;2023-09-07T00:57:08;11.48;;;9.10;;
55216;SDS011;41086;46.736;15.666;2023-09-07T00:59:35;11.95;;;9.35;;
55216;SDS011;41086;46.736;15.666;2023-09-07T01:02:03;16.80;;;9.02;;
55216;SDS011;41086;46.736;15.666;2023-09-07T01:04:32;12.70;;;7.80;;
55216;SDS011;41086;46.736;15.666;2023-09-07T01:07:04;12.73;;;9.48;;
55216;SDS011;41086;46.736;15.666;2023-09-07T01:09:37;17.42;;;9.90;;
55216;SDS011;41086;46.736;15.666;2023-09-07T01:12:06;11.75;;;8.65;;
55216;SDS011;41086;46.736;15.666;2023-09-07T01:14:37;11.77;;;9.27;;
55216;SDS011;41086;46.736;15.666;2023-09-07T01:17:04;20.35;;;9.18;;
55216;SDS011;41086;46.736;15.666;2023-09-07T01:19:32;12.25;;;9.10;;
55216;SDS011;41086;46.736;15.666;2023-09-07T01:21:59;14.88;;;9.27;;
55216;SDS011;41086;46.736;15.666;2023-09-07T01:24:26;19.60;;;10.82;;
55216;SDS011;41086;46.736;15.666;2023-09-07T01:26:56;14.50;;;10.05;;
55216;SDS011;41086;46.736;15.666;2023-09-07T01:29:24;15.40;;;10.13;;
55216;SDS011;41086;46.736;15.666;2023-09-07T01:31:53;11.38;;;9.18;;
55216;SDS011;41086;46.736;15.666;2023-09-07T01:34:20;14.55;;;10.05;;
55216;SDS011;41086;46.736;15.666;2023-09-07T01:39:13;20.58;;;10.02;;
55216;SDS011;41086;46.736;15.666;2023-09-07T01:41:40;13.00;;;10.32;;
55216;SDS011;41086;46.736;15.666;2023-09-07T01:44:07;12.55;;;9.45;;
55216;SDS011;41086;46.736;15.666;2023-09-07T01:46:34;13.35;;;9.85;;
55216;SDS011;41086;46.736;15.666;2023-09-07T01:49:04;17.05;;;10.00;;
55216;SDS011;41086;46.736;15.666;2023-09-07T01:51:32;13.18;;;10.40;;
55216;SDS011;41086;46.736;15.666;2023-09-07T01:53:58;15.13;;;10.20;;
55216;SDS011;41086;46.736;15.666;2023-09-07T01:56:25;14.57;;;10.77;;
55216;SDS011;41086;46.736;15.666;2023-09-07T01:58:53;12.20;;;10.00;;
55216;SDS011;41086;46.736;15.666;2023-09-07T02:01:30;13.05;;;9.30;;
55216;SDS011;41086;46.736;15.666;2023-09-07T02:03:57;15.48;;;9.60;;
55216;SDS011;41086;46.736;15.666;2023-09-07T02:06:24;14.45;;;10.18;;
55216;SDS011;41086;46.736;15.666;2023-09-07T02:08:51;15.27;;;10.15;;
55216;SDS011;41086;46.736;15.666;2023-09-07T02:13:46;20.27;;;9.48;;
55216;SDS011;41086;46.736;15.666;2023-09-07T02:16:14;14.80;;;10.20;;
55216;SDS011;41086;46.736;15.666;2023-09-07T02:18:42;19.35;;;10.85;;
55216;SDS011;41086;46.736;15.666;2023-09-07T02:21:12;14.15;;;10.18;;
55216;SDS011;41086;46.736;15.666;2023-09-07T02:23:40;14.10;;;9.57;;
55216;SDS011;41086;46.736;15.666;2023-09-07T02:26:07;12.68;;;8.65;;
55216;SDS011;41086;46.736;15.666;2023-09-07T02:28:34;14.23;;;8.73;;
55216;SDS011;41086;46.736;15.666;2023-09-07T02:31:04;15.80;;;9.13;;
55216;SDS011;41086;46.736;15.666;2023-09-07T02:33:32;14.80;;;9.93;;
55216;SDS011;41086;46.736;15.666;2023-09-07T02:38:27;14.90;;;10.05;;
55216;SDS011;41086;46.736;15.666;2023-09-07T02:40:54;15.45;;;9.98;;
55216;SDS011;41086;46.736;15.666;2023-09-07T02:43:22;15.95;;;10.23;;
55216;SDS011;41086;46.736;15.666;2023-09-07T02:45:49;25.85;;;9.75;;
55216;SDS011;41086;46.736;15.666;2023-09-07T02:48:20;18.45;;;10.00;;
55216;SDS011;41086;46.736;15.666;2023-09-07T02:50:48;16.42;;;10.80;;
55216;SDS011;41086;46.736;15.666;2023-09-07T02:53:20;16.73;;;10.50;;
55216;SDS011;41086;46.736;15.666;2023-09-07T02:55:47;13.32;;;9.48;;
55216;SDS011;41086;46.736;15.666;2023-09-07T02:58:14;17.80;;;9.75;;
55216;SDS011;41086;46.736;15.666;2023-09-07T03:00:42;12.00;;;8.77;;
55216;SDS011;41086;46.736;15.666;2023-09-07T03:03:12;13.27;;;8.65;;
55216;SDS011;41086;46.736;15.666;2023-09-07T03:05:41;11.23;;;8.35;;
55216;SDS011;41086;46.736;15.666;2023-09-07T03:08:09;14.80;;;10.48;;
55216;SDS011;41086;46.736;15.666;2023-09-07T03:10:37;12.30;;;9.90;;
55216;SDS011;41086;46.736;15.666;2023-09-07T03:13:07;12.57;;;9.50;;
55216;SDS011;41086;46.736;15.666;2023-09-07T03:15:35;17.38;;;9.15;;
55216;SDS011;41086;46.736;15.666;2023-09-07T03:18:05;15.43;;;9.45;;
55216;SDS011;41086;46.736;15.666;2023-09-07T03:20:33;13.07;;;9.18;;
55216;SDS011;41086;46.736;15.666;2023-09-07T03:23:02;12.30;;;9.02;;
55216;SDS011;41086;46.736;15.666;2023-09-07T03:25:30;12.82;;;9.93;;
55216;SDS011;41086;46.736;15.666;2023-09-07T03:27:57;14.45;;;8.90;;
55216;SDS011;41086;46.736;15.666;2023-09-07T03:30:24;13.82;;;8.95;;
55216;SDS011;41086;46.736;15.666;2023-09-07T03:32:53;12.10;;;9.70;;
55216;SDS011;41086;46.736;15.666;2023-09-07T03:35:20;16.92;;;9.93;;
55216;SDS011;41086;46.736;15.666;2023-09-07T03:37:47;9.77;;;8.15;;
55216;SDS011;41086;46.736;15.666;2023-09-07T03:40:13;15.60;;;8.65;;
55216;SDS011;41086;46.736;15.666;2023-09-07T03:42:41;17.20;;;8.50;;
55216;SDS011;41086;46.736;15.666;2023-09-07T03:45:09;16.08;;;8.40;;
55216;SDS011;41086;46.736;15.666;2023-09-07T03:47:37;14.35;;;9.57;;
55216;SDS011;41086;46.736;15.666;2023-09-07T03:50:04;16.35;;;10.25;;
55216;SDS011;41086;46.736;15.666;2023-09-07T03:52:32;17.92;;;10.40;;
55216;SDS011;41086;46.736;15.666;2023-09-07T03:55:03;16.55;;;9.48;;
55216;SDS011;41086;46.736;15.666;2023-09-07T03:57:30;13.43;;;9.18;;
55216;SDS011;41086;46.736;15.666;2023-09-07T03:59:57;17.10;;;10.10;;
55216;SDS011;41086;46.736;15.666;2023-09-07T04:02:24;12.98;;;8.23;;
55216;SDS011;41086;46.736;15.666;2023-09-07T04:04:52;14.15;;;8.60;;
55216;SDS011;41086;46.736;15.666;2023-09-07T04:07:20;15.07;;;10.30;;
55216;SDS011;41086;46.736;15.666;2023-09-07T04:09:48;15.30;;;10.45;;
55216;SDS011;41086;46.736;15.666;2023-09-07T04:12:16;15.18;;;9.95;;
55216;SDS011;41086;46.736;15.666;2023-09-07T04:14:43;14.65;;;9.25;;
55216;SDS011;41086;46.736;15.666;2023-09-07T04:17:11;12.10;;;7.80;;
55216;SDS011;41086;46.736;15.666;2023-09-07T04:22:05;11.85;;;7.80;;
55216;SDS011;41086;46.736;15.666;2023-09-07T04:24:32;11.68;;;7.63;;
55216;SDS011;41086;46.736;15.666;2023-09-07T04:27:00;10.20;;;7.40;;
55216;SDS011;41086;46.736;15.666;2023-09-07T04:29:29;11.95;;;7.88;;
55216;SDS011;41086;46.736;15.666;2023-09-07T04:31:56;30.15;;;7.88;;
55216;SDS011;41086;46.736;15.666;2023-09-07T04:36:52;11.27;;;7.57;;
55216;SDS011;41086;46.736;15.666;2023-09-07T04:39:19;12.27;;;6.93;;
55216;SDS011;41086;46.736;15.666;2023-09-07T04:41:47;10.43;;;8.02;;
55216;SDS011;41086;46.736;15.666;2023-09-07T04:44:14;12.55;;;8.48;;
55216;SDS011;41086;46.736;15.666;2023-09-07T04:46:42;13.00;;;9.13;;
55216;SDS011;41086;46.736;15.666;2023-09-07T04:49:10;15.25;;;9.02;;
55216;SDS011;41086;46.736;15.666;2023-09-07T04:51:36;13.85;;;10.38;;
55216;SDS011;41086;46.736;15.666;2023-09-07T04:54:03;12.27;;;9.45;;
55216;SDS011;41086;46.736;15.666;2023-09-07T04:58:57;11.10;;;8.52;;
55216;SDS011;41086;46.736;15.666;2023-09-07T05:01:25;14.57;;;8.43;;
55216;SDS011;41086;46.736;15.666;2023-09-07T05:03:53;16.45;;;8.65;;
55216;SDS011;41086;46.736;15.666;2023-09-07T05:06:21;15.48;;;9.38;;
55216;SDS011;41086;46.736;15.666;2023-09-07T05:08:51;14.35;;;9.52;;
55216;SDS011;41086;46.736;15.666;2023-09-07T05:11:17;10.50;;;8.43;;
55216;SDS011;41086;46.736;15.666;2023-09-07T05:13:44;12.82;;;9.27;;
55216;SDS011;41086;46.736;15.666;2023-09-07T05:16:11;12.13;;;8.82;;
55216;SDS011;41086;46.736;15.666;2023-09-07T05:18:40;12.43;;;9.43;;
55216;SDS011;41086;46.736;15.666;2023-09-07T05:21:13;17.98;;;9.98;;
55216;SDS011;41086;46.736;15.666;2023-09-07T05:23:41;15.90;;;9.90;;
55216;SDS011;41086;46.736;15.666;2023-09-07T05:26:08;11.65;;;9.18;;
55216;SDS011;41086;46.736;15.666;2023-09-07T05:31:02;16.50;;;9.48;;
55216;SDS011;41086;46.736;15.666;2023-09-07T05:33:31;20.05;;;10.10;;
55216;SDS011;41086;46.736;15.666;2023-09-07T05:38:25;15.15;;;8.68;;
55216;SDS011;41086;46.736;15.666;2023-09-07T05:43:22;19.00;;;10.30;;
55216;SDS011;41086;46.736;15.666;2023-09-07T05:48:16;15.27;;;8.98;;
55216;SDS011;41086;46.736;15.666;2023-09-07T05:50:44;14.05;;;10.25;;
55216;SDS011;41086;46.736;15.666;2023-09-07T05:53:12;13.85;;;9.63;;
55216;SDS011;41086;46.736;15.666;2023-09-07T05:55:39;12.13;;;9.85;;
55216;SDS011;41086;46.736;15.666;2023-09-07T06:00:42;11.73;;;8.98;;
55216;SDS011;41086;46.736;15.666;2023-09-07T06:03:10;15.50;;;8.90;;
55216;SDS011;41086;46.736;15.666;2023-09-07T06:05:38;17.83;;;9.73;;
55216;SDS011;41086;46.736;15.666;2023-09-07T06:08:07;12.55;;;8.55;;
55216;SDS011;41086;46.736;15.666;2023-09-07T06:10:35;14.93;;;9.10;;
55216;SDS011;41086;46.736;15.666;2023-09-07T06:13:03;12.25;;;8.52;;
55216;SDS011;41086;46.736;15.666;2023-09-07T06:15:31;12.27;;;8.60;;
55216;SDS011;41086;46.736;15.666;2023-09-07T06:17:58;10.18;;;8.30;;
55216;SDS011;41086;46.736;15.666;2023-09-07T06:20:25;17.48;;;10.88;;
55216;SDS011;41086;46.736;15.666;2023-09-07T06:22:54;17.75;;;8.70;;
55216;SDS011;41086;46.736;15.666;2023-09-07T06:25:21;17.00;;;9.00;;
55216;SDS011;41086;46.736;15.666;2023-09-07T06:27:49;10.35;;;7.72;;
55216;SDS011;41086;46.736;15.666;2023-09-07T06:30:17;8.57;;;7.10;;
55216;SDS011;41086;46.736;15.666;2023-09-07T06:32:46;10.80;;;7.68;;
55216;SDS011;41086;46.736;15.666;2023-09-07T06:35:15;10.60;;;7.95;;
55216;SDS011;41086;46.736;15.666;2023-09-07T06:37:42;12.15;;;8.05;;
55216;SDS011;41086;46.736;15.666;2023-09-07T06:40:11;11.73;;;7.30;;
55216;SDS011;41086;46.736;15.666;2023-09-07T06:42:40;9.55;;;6.60;;
55216;SDS011;41086;46.736;15.666;2023-09-07T06:45:14;13.07;;;7.25;;
55216;SDS011;41086;46.736;15.666;2023-09-07T06:47:41;10.25;;;6.75;;
55216;SDS011;41086;46.736;15.666;2023-09-07T06:50:09;12.65;;;7.03;;
55216;SDS011;41086;46.736;15.666;2023-09-07T06:52:37;8.70;;;6.53;;
55216;SDS011;41086;46.736;15.666;2023-09-07T06:55:04;7.38;;;5.90;;
55216;SDS011;41086;46.736;15.666;2023-09-07T06:57:32;12.57;;;8.13;;
55216;SDS011;41086;46.736;15.666;2023-09-07T07:00:02;19.95;;;7.20;;
55216;SDS011;41086;46.736;15.666;2023-09-07T07:02:32;9.38;;;6.03;;
55216;SDS011;41086;46.736;15.666;2023-09-07T07:07:26;14.60;;;6.85;;
55216;SDS011;41086;46.736;15.666;2023-09-07T07:12:19;15.25;;;6.50;;
55216;SDS011;41086;46.736;15.666;2023-09-07T07:14:47;12.48;;;6.03;;
55216;SDS011;41086;46.736;15.666;2023-09-07T07:17:14;13.80;;;6.70;;
55216;SDS011;41086;46.736;15.666;2023-09-07T07:19:41;10.73;;;7.03;;
55216;SDS011;41086;46.736;15.666;2023-09-07T07:22:10;8.82;;;6.35;;
55216;SDS011;41086;46.736;15.666;2023-09-07T07:24:36;11.50;;;6.40;;
55216;SDS011;41086;46.736;15.666;2023-09-07T07:27:03;8.63;;;6.57;;
55216;SDS011;41086;46.736;15.666;2023-09-07T07:29:33;7.82;;;6.30;;
55216;SDS011;41086;46.736;15.666;2023-09-07T07:32:01;8.70;;;5.90;;
55216;SDS011;41086;46.736;15.666;2023-09-07T07:34:28;8.82;;;6.00;;
55216;SDS011;41086;46.736;15.666;2023-09-07T07:36:56;9.82;;;6.18;;
55216;SDS011;41086;46.736;15.666;2023-09-07T07:41:50;12.60;;;6.37;;
55216;SDS011;41086;46.736;15.666;2023-09-07T07:46:45;10.05;;;7.15;;
55216;SDS011;41086;46.736;15.666;2023-09-07T07:49:13;8.50;;;6.88;;
55216;SDS011;41086;46.736;15.666;2023-09-07T07:51:42;11.77;;;7.47;;
55216;SDS011;41086;46.736;15.666;2023-09-07T07:54:09;8.85;;;5.80;;
55216;SDS011;41086;46.736;15.666;2023-09-07T07:56:38;17.70;;;7.00;;
55216;SDS011;41086;46.736;15.666;2023-09-07T07:59:06;11.60;;;6.40;;
55216;SDS011;41086;46.736;15.666;2023-09-07T08:01:33;8.82;;;5.95;;
55216;SDS011;41086;46.736;15.666;2023-09-07T08:04:02;14.43;;;6.80;;
55216;SDS011;41086;46.736;15.666;2023-09-07T08:06:31;12.80;;;5.65;;
55216;SDS011;41086;46.736;15.666;2023-09-07T08:08:58;9.38;;;5.60;;
55216;SDS011;41086;46.736;15.666;2023-09-07T08:11:25;7.47;;;5.50;;
55216;SDS011;41086;46.736;15.666;2023-09-07T08:13:53;8.70;;;5.95;;
55216;SDS011;41086;46.736;15.666;2023-09-07T08:16:20;6.65;;;4.68;;
55216;SDS011;41086;46.736;15.666;2023-09-07T08:18:49;7.80;;;5.10;;
55216;SDS011;41086;46.736;15.666;2023-09-07T08:21:16;8.73;;;5.60;;
55216;SDS011;41086;46.736;15.666;2023-09-07T08:23:44;6.18;;;4.28;;
55216;SDS011;41086;46.736;15.666;2023-09-07T08:26:12;7.30;;;4.47;;
55216;SDS011;41086;46.736;15.666;2023-09-07T08:28:42;7.85;;;4.30;;
55216;SDS011;41086;46.736;15.666;2023-09-07T08:31:13;8.75;;;5.15;;
55216;SDS011;41086;46.736;15.666;2023-09-07T08:33:48;9.43;;;4.35;;
55216;SDS011;41086;46.736;15.666;2023-09-07T08:36:17;6.05;;;4.68;;
55216;SDS011;41086;46.736;15.666;2023-09-07T08:41:10;7.82;;;4.10;;
55216;SDS011;41086;46.736;15.666;2023-09-07T08:43:39;5.20;;;4.00;;
55216;SDS011;41086;46.736;15.666;2023-09-07T08:48:45;5.75;;;3.90;;
55216;SDS011;41086;46.736;15.666;2023-09-07T08:51:14;5.88;;;4.20;;
55216;SDS011;41086;46.736;15.666;2023-09-07T08:53:42;8.30;;;4.30;;
55216;SDS011;41086;46.736;15.666;2023-09-07T08:56:13;5.35;;;4.05;;
55216;SDS011;41086;46.736;15.666;2023-09-07T08:58:41;5.47;;;4.32;;
55216;SDS011;41086;46.736;15.666;2023-09-07T09:01:08;5.93;;;4.57;;
55216;SDS011;41086;46.736;15.666;2023-09-07T09:06:03;8.98;;;4.80;;
55216;SDS011;41086;46.736;15.666;2023-09-07T09:08:44;9.25;;;4.57;;
55216;SDS011;41086;46.736;15.666;2023-09-07T09:11:16;6.28;;;4.10;;
55216;SDS011;41086;46.736;15.666;2023-09-07T09:16:11;7.25;;;3.90;;
55216;SDS011;41086;46.736;15.666;2023-09-07T09:21:38;4.93;;;3.38;;
55216;SDS011;41086;46.736;15.666;2023-09-07T09:29:03;4.55;;;3.42;;
55216;SDS011;41086;46.736;15.666;2023-09-07T19:39:29;9.25;;;5.35;;
55216;SDS011;41086;46.736;15.666;2023-09-07T19:41:55;15.23;;;5.18;;
55216;SDS011;41086;46.736;15.666;2023-09-07T19:44:23;24.20;;;6.18;;
55216;SDS011;41086;46.736;15.666;2023-09-07T19:46:49;22.30;;;6.30;;
55216;SDS011;41086;46.736;15.666;2023-09-07T19:51:44;14.02;;;7.45;;
55216;SDS011;41086;46.736;15.666;2023-09-07T19:54:12;8.27;;;5.65;;
55216;SDS011;41086;46.736;15.666;2023-09-07T19:56:39;7.60;;;5.88;;
55216;SDS011;41086;46.736;15.666;2023-09-07T19:59:08;8.50;;;5.30;;
55216;SDS011;41086;46.736;15.666;2023-09-07T20:04:28;8.23;;;5.32;;
55216;SDS011;41086;46.736;15.666;2023-09-07T20:06:55;8.52;;;5.63;;
55216;SDS011;41086;46.736;15.666;2023-09-07T20:09:23;6.07;;;4.82;;
55216;SDS011;41086;46.736;15.666;2023-09-07T20:11:51;6.65;;;5.10;;
55216;SDS011;41086;46.736;15.666;2023-09-07T20:14:20;7.75;;;5.22;;
55216;SDS011;41086;46.736;15.666;2023-09-07T20:16:47;11.00;;;6.80;;
55216;SDS011;41086;46.736;15.666;2023-09-07T20:19:14;11.60;;;6.50;;
55216;SDS011;41086;46.736;15.666;2023-09-07T20:21:42;9.50;;;6.40;;
55216;SDS011;41086;46.736;15.666;2023-09-07T20:24:10;7.53;;;5.78;;
55216;SDS011;41086;46.736;15.666;2023-09-07T20:26:36;7.82;;;5.55;;
55216;SDS011;41086;46.736;15.666;2023-09-07T20:29:03;7.32;;;4.90;;
55216;SDS011;41086;46.736;15.666;2023-09-07T20:31:31;10.68;;;6.10;;
55216;SDS011;41086;46.736;15.666;2023-09-07T20:33:59;7.88;;;6.10;;
55216;SDS011;41086;46.736;15.666;2023-09-07T20:36:25;8.38;;;5.93;;
55216;SDS011;41086;46.736;15.666;2023-09-07T20:38:52;6.85;;;5.38;;
55216;SDS011;41086;46.736;15.666;2023-09-07T20:41:19;11.50;;;6.55;;
55216;SDS011;41086;46.736;15.666;2023-09-07T20:43:46;9.75;;;6.80;;
55216;SDS011;41086;46.736;15.666;2023-09-07T20:46:13;21.17;;;8.05;;
55216;SDS011;41086;46.736;15.666;2023-09-07T20:48:40;13.35;;;8.35;;
55216;SDS011;41086;46.736;15.666;2023-09-07T20:51:07;11.25;;;7.57;;
55216;SDS011;41086;46.736;15.666;2023-09-07T20:53:35;11.15;;;6.55;;
55216;SDS011;41086;46.736;15.666;2023-09-07T20:56:02;26.48;;;16.35;;
55216;SDS011;41086;46.736;15.666;2023-09-07T21:00:56;15.95;;;7.18;;
55216;SDS011;41086;46.736;15.666;2023-09-07T21:03:23;9.48;;;6.75;;
55216;SDS011;41086;46.736;15.666;2023-09-07T21:08:18;8.60;;;5.53;;
55216;SDS011;41086;46.736;15.666;2023-09-07T21:13:13;12.38;;;6.00;;
55216;SDS011;41086;46.736;15.666;2023-09-07T21:15:40;9.75;;;6.00;;
55216;SDS011;41086;46.736;15.666;2023-09-07T21:18:06;13.57;;;6.55;;
55216;SDS011;41086;46.736;15.666;2023-09-07T21:20:33;9.60;;;5.53;;
55216;SDS011;41086;46.736;15.666;2023-09-07T21:23:01;9.80;;;6.65;;
55216;SDS011;41086;46.736;15.666;2023-09-07T21:25:29;11.07;;;6.50;;
55216;SDS011;41086;46.736;15.666;2023-09-07T21:30:23;13.75;;;6.65;;
55216;SDS011;41086;46.736;15.666;2023-09-07T21:32:51;9.48;;;7.05;;
55216;SDS011;41086;46.736;15.666;2023-09-07T21:35:18;12.23;;;7.30;;
55216;SDS011;41086;46.736;15.666;2023-09-07T21:37:45;10.60;;;7.78;;
55216;SDS011;41086;46.736;15.666;2023-09-07T21:40:12;11.27;;;7.30;;
55216;SDS011;41086;46.736;15.666;2023-09-07T21:42:39;13.85;;;7.93;;
55216;SDS011;41086;46.736;15.666;2023-09-07T21:47:32;8.52;;;6.28;;
55216;SDS011;41086;46.736;15.666;2023-09-07T21:50:01;8.32;;;6.72;;
55216;SDS011;41086;46.736;15.666;2023-09-07T21:52:29;8.98;;;6.88;;
55216;SDS011;41086;46.736;15.666;2023-09-07T21:54:56;17.45;;;7.40;;
55216;SDS011;41086;46.736;15.666;2023-09-07T21:57:23;10.80;;;7.43;;
55216;SDS011;41086;46.736;15.666;2023-09-07T21:59:51;12.45;;;9.20;;
55216;SDS011;41086;46.736;15.666;2023-09-07T22:02:19;12.68;;;7.82;;
55216;SDS011;41086;46.736;15.666;2023-09-07T22:04:49;14.05;;;9.38;;
55216;SDS011;41086;46.736;15.666;2023-09-07T22:07:17;10.32;;;8.38;;
55216;SDS011;41086;46.736;15.666;2023-09-07T22:12:11;11.93;;;7.57;;
55216;SDS011;41086;46.736;15.666;2023-09-07T22:17:05;9.85;;;6.57;;
55216;SDS011;41086;46.736;15.666;2023-09-07T22:19:33;10.07;;;7.57;;
55216;SDS011;41086;46.736;15.666;2023-09-07T22:22:00;10.30;;;7.88;;
55216;SDS011;41086;46.736;15.666;2023-09-07T22:26:54;11.68;;;7.00;;
55216;SDS011;41086;46.736;15.666;2023-09-07T22:29:23;10.98;;;7.93;;
55216;SDS011;41086;46.736;15.666;2023-09-07T22:31:51;8.23;;;6.75;;
55216;SDS011;41086;46.736;15.666;2023-09-07T22:34:18;11.25;;;7.68;;
55216;SDS011;41086;46.736;15.666;2023-09-07T22:36:44;12.15;;;7.55;;
55216;SDS011;41086;46.736;15.666;2023-09-07T22:39:11;9.50;;;7.00;;
55216;SDS011;41086;46.736;15.666;2023-09-07T22:41:39;17.10;;;7.10;;
55216;SDS011;41086;46.736;15.666;2023-09-07T22:44:06;10.95;;;7.75;;
55216;SDS011;41086;46.736;15.666;2023-09-07T22:46:33;13.93;;;7.68;;
55216;SDS011;41086;46.736;15.666;2023-09-07T22:51:28;16.00;;;9.25;;
55216;SDS011;41086;46.736;15.666;2023-09-07T22:56:21;12.77;;;8.20;;
55216;SDS011;41086;46.736;15.666;2023-09-07T22:58:48;14.02;;;8.43;;
55216;SDS011;41086;46.736;15.666;2023-09-07T23:01:15;16.55;;;9.35;;
55216;SDS011;41086;46.736;15.666;2023-09-07T23:03:42;12.80;;;8.57;;
55216;SDS011;41086;46.736;15.666;2023-09-07T23:06:09;19.20;;;8.65;;
55216;SDS011;41086;46.736;15.666;2023-09-07T23:08:37;11.32;;;7.72;;
55216;SDS011;41086;46.736;15.666;2023-09-07T23:11:03;13.68;;;9.05;;
55216;SDS011;41086;46.736;15.666;2023-09-07T23:16:02;14.57;;;9.05;;
55216;SDS011;41086;46.736;15.666;2023-09-07T23:18:29;12.50;;;8.88;;
55216;SDS011;41086;46.736;15.666;2023-09-07T23:20:56;14.00;;;9.23;;
55216;SDS011;41086;46.736;15.666;2023-09-07T23:23:23;14.35;;;7.97;;
55216;SDS011;41086;46.736;15.666;2023-09-07T23:25:53;11.90;;;8.35;;
55216;SDS011;41086;46.736;15.666;2023-09-07T23:28:20;17.70;;;9.10;;
55216;SDS011;41086;46.736;15.666;2023-09-07T23:30:52;15.02;;;8.82;;
55216;SDS011;41086;46.736;15.666;2023-09-07T23:33:20;11.60;;;8.77;;
55216;SDS011;41086;46.736;15.666;2023-09-07T23:35:51;11.15;;;7.97;;
55216;SDS011;41086;46.736;15.666;2023-09-07T23:38:19;14.23;;;9.50;;
55216;SDS011;41086;46.736;15.666;2023-09-07T23:40:46;15.48;;;9.30;;
55216;SDS011;41086;46.736;15.666;2023-09-07T23:43:13;13.95;;;9.85;;
55216;SDS011;41086;46.736;15.666;2023-09-07T23:45:40;12.13;;;9.23;;
55216;SDS011;41086;46.736;15.666;2023-09-07T23:48:07;10.60;;;7.55;;
55216;SDS011;41086;46.736;15.666;2023-09-07T23:50:33;15.70;;;8.43;;
55216;SDS011;41086;46.736;15.666;2023-09-07T23:53:00;11.10;;;8.32;;
55216;SDS011;41086;46.736;15.666;2023-09-07T23:55:27;14.60;;;10.00;;
55216;SDS011;41086;46.736;15.666;2023-09-07T23:57:54;17.48;;;10.02;;
